Fédération internationale de Ski
Member Section
Print

OFFICIAL RESULTS

Kontiolahti (FIN) 25.11.2017

FIS - Ladies' 10 km F OFFICIAL RESULTS

Race codex : 3157
Valid for FIS Points : YES
TD FIS RYYNAENEN ESA FIN
 
Show more info»

Competitors

Display filter form
Rank Bib FIS Code Name Year Nation Time Behind FIS Points
 1  88  3485862 ZHAMBALOVA Alisa  1994  RUS   28:29.5     43.82
 2  89  3485717 SOBOLEVA Elena  1992  RUS   28:43.2  +13.7  50.23
 3  77  3185038 ALUSNIEMI Sini  1981  FIN   28:45.7  +16.2  51.40
 4  82  3675066 TYULENEVA Valeriya  1997  KAZ   28:46.8  +17.3  51.92
 5  67  3485342 DOTSENKO Anastasia  1986  RUS   28:57.3  +27.8  56.83
 6  83  3695016 ANTSYBOR Maryna  1987  UKR   28:59.8  +30.3  58.00
 7  78  3185218 HOKKANEN Heini  1986  FIN   29:27.7  +58.2  71.06
 8  86  1258769 LEE Chaewon  1981  KOR   29:33.4  +1:03.9  73.72
 9  80  3155249 NOVAKOVA Petra  1993  CZE   29:35.9  +1:06.4  74.89
 10  70  3665028 KINNUNEN Nastassia  1985  BLR   29:37.0  +1:07.5  75.41
 11  75  3395035 ALBA Laura  1985  EST   29:43.6  +1:14.1  78.50
 12  85  1142563 SHEVCHENKO Valentyna  1975  UKR   30:01.1  +1:31.6  86.69
 13  76  3675029 STOYAN Anna  1993  KAZ   30:37.0  +2:07.5  103.49
 14  69  3095010 GRIGOROVA Antoniya  1986  BUL   30:46.1  +2:16.6  107.75
 15  64  3185500 TOLONEN Jenni  1994  FIN   30:46.5  +2:17.0  107.93
 16  60  3185293 JALONEN Heta  1991  FIN   30:47.2  +2:17.7  108.26
 17  36  3665100 KUZNECHYK Varvara  1998  BLR   31:04.2  +2:34.7  116.22
 18  63  3665066 PATAPOVICH Krystsina  1995  BLR   31:20.7  +2:51.2  123.94
 19  66  3125070 MA Qinghua  1995  CHN   31:21.2  +2:51.7  124.17
 20  42  3675090 TARASSOVA Anzhelika  1999  KAZ   31:24.3  +2:54.8  125.62
 21  41  3185740 BOOK Josefiina  1999  FIN   31:26.6  +2:57.1  126.70
 22  72  3185302 KARKKULAINEN Laura  1992  FIN   31:27.9  +2:58.4  127.31
 23  79  3155330 STANKOVA Zuzana  1997  CZE   31:50.8  +3:21.3  138.02
 24  40  3695082 KROL Yuliia  1998  UKR   31:56.7  +3:27.2  140.78
 25  39  3185758 TIVINEN Noora  1999  FIN   31:56.8  +3:27.3  140.83
 26  65  3125023 MAN Dandan  1989  CHN   31:59.4  +3:29.9  142.05
 27  55  3185672 KEMPPAINEN Miia  1993  FIN   32:08.5  +3:39.0  146.31
 28  54  3125095 MENG Honglian  1997  CHN   32:19.9  +3:50.4  151.64
 29  35  3185724 HAMALAINEN Elina  1998  FIN   32:20.7  +3:51.2  152.02
 30  53  3045031 SLATTERY Sarah  1988  AUS   32:28.7  +3:59.2  155.76
 31  32  3665086 ANDRYIUK Sviatlana  1999  BLR   32:29.1  +3:59.6  155.95
 32  62  3555036 MUIZNIECE Anda  1991  LAT   32:37.0  +4:07.5  159.64
 33  58  3185128 IDSTROM-PORTTI Tiina  1988  FIN   32:45.2  +4:15.7  163.48
 34  68  3675046 RYAZHKO Darya  1995  KAZ   32:49.8  +4:20.3  165.63
 35  38  3675103 KADIROVA Gulsina  1999  KAZ   32:55.3  +4:25.8  168.21
 36  56  3185575 PYKALAINEN Johanna  1996  FIN   32:57.7  +4:28.2  169.33
 37  47  3185783 SORSA Riina  1997  FIN   33:02.3  +4:32.8  171.48
 38  57  3185371 NURMI Eeva  1992  FIN   33:07.3  +4:37.8  173.82
 39  31  3185780 NURMINEN Laura  1998  FIN   33:46.4  +5:16.9  192.12
 40  51  3185629 SAASTAMOINEN Ilona  1997  FIN   33:50.3  +5:20.8  193.95
 41  22  3185917 HIRVONEN Emma  1998  FIN   34:02.5  +5:33.0  199.66
 42  37  3095087 OKORO Nansi  1999  BUL   34:04.2  +5:34.7  200.45
 43  45  3185786 SADE Santra  1997  FIN   34:18.2  +5:48.7  207.00
 44  26  3185767 SILVASTI Reetta  1999  FIN   34:36.6  +6:07.1  215.61
 45  33  3185763 METZNER Emma  1999  FIN   34:39.4  +6:09.9  216.92
 46  61  3665065 BUKINICH Maryna  1994  BLR   34:59.0  +6:29.5  226.10
 47  50  3745022 MKHITARYAN Anna  1996  ARM   35:09.4  +6:39.9  230.96
 48  29  3185798 PAKOLA Jonna  1999  FIN   35:18.4  +6:48.9  235.17
 49  52  3185569 KURKINEN Greta  1995  FIN   35:19.4  +6:49.9  235.64
 50  21  3185784 MOISIO Iiris  1999  FIN   35:28.7  +6:59.2  239.99
 51  28  3675063 CHERNYKH Natalya  1999  KAZ   35:29.5  +7:00.0  240.37
 52  34  3185755 JYRKINEN Emma  1998  FIN   35:38.5  +7:09.0  244.58
 53  25  3185742 LAAKKONEN Johanna  1999  FIN   35:52.9  +7:23.4  251.32
 54  48  3185328 HUUSKONEN Tiia  1985  FIN   36:14.9  +7:45.4  261.61
 55  27  3185766 ROKKONEN Henriikka  1999  FIN   38:03.5  +9:34.0  312.44
 56  23  3185695 LAAMANEN Aino  1998  FIN   41:17.4  +12:47.9  403.18
Did not finish
   49  3185631 AHONEN Anni   1997  FIN       
Disqualified
   24  3665116 SHCHALKUN Zinaida  1999  BLR       
   46  3695089 MAZUR Daryna  1997  UKR       
Did not start
   59  3695022 SERDIUK Kateryna  1989  UKR       
   71  3665059 LUKONINA Ina  1994  BLR       
   73  3045009 WATSON Aimee  1987  AUS       
   74  3665023 KAMINSKAYA Valiantsina  1987  BLR       
   81  3675049 BYKOVA Irina  1993  KAZ       
   84  3695067 ANTYPENKO Tetiana  1981  UKR       
   87  3675035 SHEVCHENKO Anna  1993  KAZ       
 
 
Sanctions
 3695089  MAZUR Daryna  UKR  
   Disqualification, ICR 343.6 did not follow marked course
 3665116  SHCHALKUN Zinaida  BLR  
   Disqualification, ICR 343.6 did not follow marked course